Time;durP1;ratioP1;P1;durP2;ratioP2;P2;SDS_P1;SDS_P2;PMS_P1;PMS_P2;Temp;Humidity;BMP_temperature;BMP_pressure;BME280_temperature;BME280_humidity;BME280_pressure;Samples;Min_cycle;Max_cycle;Signal;HPM_P1;HPM_P2
2023/05/01 00:01:56;;;;;;;16.20;7.05;;;;;;;7.36;65.84;99974.97;1783047;79;21012;-55
2023/05/01 00:04:25;;;;;;;17.87;8.50;;;;;;;7.36;65.82;99975.48;1782940;80;21083;-56
2023/05/01 00:06:54;;;;;;;20.92;8.90;;;;;;;7.33;65.85;99975.86;1783011;80;21300;-55
2023/05/01 00:09:23;;;;;;;16.95;8.58;;;;;;;7.33;65.88;99988.13;1783051;80;21420;-55
2023/05/01 00:11:51;;;;;;;20.30;9.08;;;;;;;7.31;66.03;99989.16;1783199;80;21044;-57
2023/05/01 00:14:20;;;;;;;20.77;8.68;;;;;;;7.28;66.17;99994.98;1783043;80;20976;-56
2023/05/01 00:16:49;;;;;;;19.60;8.65;;;;;;;7.24;66.34;99994.18;1783449;80;21459;-55
2023/05/01 00:19:19;;;;;;;19.27;8.30;;;;;;;7.26;66.49;100003.02;1783545;80;21051;-56
2023/05/01 00:21:50;;;;;;;19.90;8.73;;;;;;;7.27;66.49;100000.11;1783321;80;21095;-55
2023/05/01 00:24:18;;;;;;;24.90;9.10;;;;;;;7.30;66.60;100010.63;1783101;79;20976;-55
2023/05/01 00:26:47;;;;;;;19.42;8.83;;;;;;;7.25;66.83;100011.70;1782876;79;21094;-55
2023/05/01 00:29:16;;;;;;;17.70;8.73;;;;;;;7.20;67.12;100008.69;1782945;80;21075;-55
2023/05/01 00:31:46;;;;;;;19.32;7.83;;;;;;;7.21;67.25;100010.39;1783030;79;22038;-56
2023/05/01 00:34:15;;;;;;;14.10;7.50;;;;;;;7.24;67.27;100003.20;1783052;80;21074;-55
2023/05/01 00:36:44;;;;;;;12.95;7.25;;;;;;;7.25;67.30;100000.81;1782779;80;21459;-56
2023/05/01 00:39:15;;;;;;;15.53;6.97;;;;;;;7.25;67.41;100007.63;1782734;80;21516;-57
2023/05/01 00:41:43;;;;;;;23.10;8.43;;;;;;;7.23;67.56;100012.41;1782896;79;20988;-55
2023/05/01 00:44:13;;;;;;;16.73;8.28;;;;;;;7.21;67.71;100014.47;1782762;80;21026;-56
2023/05/01 00:46:42;;;;;;;17.00;7.65;;;;;;;7.23;67.91;100015.13;1782947;80;21071;-56
2023/05/01 00:49:12;;;;;;;15.55;8.08;;;;;;;7.26;67.92;100022.94;1782836;80;21020;-56
2023/05/01 00:51:41;;;;;;;18.82;8.23;;;;;;;7.29;67.92;100028.53;1782904;80;21428;-55
2023/05/01 00:54:09;;;;;;;17.10;8.75;;;;;;;7.29;67.91;100024.45;1788350;80;21497;-55
2023/05/01 00:56:38;;;;;;;18.52;8.60;;;;;;;7.29;67.94;100025.29;1788453;80;21012;-56
2023/05/01 00:59:07;;;;;;;18.70;8.33;;;;;;;7.33;67.90;100027.13;1788226;80;21028;-57
2023/05/01 01:01:36;;;;;;;21.55;9.13;;;;;;;7.35;67.94;100034.59;1788342;80;21464;-56
2023/05/01 01:04:06;;;;;;;21.87;9.88;;;;;;;7.38;68.04;100036.11;1788436;80;21004;-57
2023/05/01 01:06:58;;;;;;;9.88;5.20;;;;;;;7.41;67.95;100034.38;1788209;80;21454;-56
2023/05/01 01:10:19;;;;;;;13.60;5.22;;;;;;;7.48;67.42;100038.05;1788395;80;21459;-56
2023/05/01 01:13:15;;;;;;;10.72;4.80;;;;;;;7.67;66.34;100040.73;1788550;79;21024;-56
2023/05/01 01:15:57;;;;;;;9.53;4.70;;;;;;;7.86;65.43;100038.83;1788521;79;21050;-56
2023/05/01 01:18:57;;;;;;;8.25;4.00;;;;;;;7.98;64.66;100041.41;1787858;80;21047;-57
2023/05/01 01:21:33;;;;;;;7.55;4.17;;;;;;;8.09;64.21;100041.44;1788477;80;21027;-56
2023/05/01 01:24:10;;;;;;;11.43;4.53;;;;;;;8.18;63.84;100048.48;1788097;80;21008;-55
2023/05/01 01:26:46;;;;;;;;;;;;;;;8.22;63.59;100048.42;1790783;80;21435;-56
2023/05/01 01:29:35;;;;;;;8.53;4.87;;;;;;;8.25;63.42;100059.81;1788160;80;20180;-57
2023/05/01 01:32:44;;;;;;;5.95;3.40;;;;;;;8.28;63.45;100054.48;1788155;80;21039;-56
2023/05/01 01:35:20;;;;;;;8.43;3.75;;;;;;;8.31;63.33;100050.53;1775026;80;21432;-55
2023/05/01 01:37:56;;;;;;;6.33;3.40;;;;;;;8.35;63.00;100041.80;1787942;80;21501;-57
2023/05/01 01:40:29;;;;;;;7.28;3.77;;;;;;;8.38;62.83;100042.77;1788357;80;21039;-55
2023/05/01 01:43:06;;;;;;;7.70;4.03;;;;;;;8.40;62.63;100036.60;1785046;80;21032;-55
2023/05/01 01:45:42;;;;;;;8.35;3.77;;;;;;;8.42;62.50;100041.35;1788344;80;21074;-57
2023/05/01 01:48:16;;;;;;;8.05;3.80;;;;;;;8.43;62.28;100045.77;1788169;80;21023;-57
2023/05/01 01:50:45;;;;;;;9.23;3.50;;;;;;;8.43;62.15;100051.75;1788278;80;21358;-56
2023/05/01 01:53:17;;;;;;;8.38;3.70;;;;;;;8.43;62.10;100054.48;1788158;80;21481;-56
2023/05/01 01:55:46;;;;;;;7.00;3.98;;;;;;;8.44;61.94;100055.66;1788359;79;21039;-56
2023/05/01 01:58:15;;;;;;;7.03;3.72;;;;;;;8.45;61.87;100059.23;1788269;80;21012;-57
2023/05/01 02:00:45;;;;;;;7.55;3.70;;;;;;;8.48;61.85;100069.80;1788277;80;21444;-56
2023/05/01 02:03:13;;;;;;;9.15;3.98;;;;;;;8.46;61.89;100069.99;1788544;79;21008;-56
2023/05/01 02:05:44;;;;;;;8.95;3.58;;;;;;;8.46;61.99;100071.88;1788413;79;21085;-56
2023/05/01 02:08:12;;;;;;;8.58;3.55;;;;;;;8.45;62.08;100074.25;1788332;79;21031;-56
2023/05/01 02:10:42;;;;;;;7.33;3.40;;;;;;;8.44;62.28;100077.50;1788177;80;21862;-56
2023/05/01 02:13:11;;;;;;;6.75;3.52;;;;;;;8.44;62.55;100077.50;1788486;79;21008;-56
2023/05/01 02:15:40;;;;;;;7.97;3.20;;;;;;;8.45;62.81;100094.72;1770944;80;21027;-57
2023/05/01 02:18:08;;;;;;;6.53;3.20;;;;;;;8.49;63.09;100091.45;1788689;80;21459;-54
2023/05/01 02:20:37;;;;;;;6.78;3.17;;;;;;;8.52;63.43;100087.48;1788366;79;21070;-56
2023/05/01 02:23:06;;;;;;;4.22;2.72;;;;;;;8.55;63.90;100092.56;1788534;79;21412;-57
2023/05/01 02:25:35;;;;;;;5.33;2.77;;;;;;;8.58;64.22;100090.30;1788029;80;21039;-57
2023/05/01 02:28:09;;;;;;;6.55;2.60;;;;;;;8.62;64.40;100097.58;1788142;80;20980;-56
2023/05/01 02:30:38;;;;;;;5.42;2.55;;;;;;;8.64;64.67;100091.93;1788045;80;21098;-57
2023/05/01 02:33:09;;;;;;;5.78;2.95;;;;;;;8.66;65.00;100087.97;1788358;80;21043;-55
2023/05/01 02:35:43;;;;;;;4.15;2.50;;;;;;;8.69;65.27;100097.66;1788520;80;21039;-57
2023/05/01 02:38:12;;;;;;;4.28;2.42;;;;;;;8.70;65.39;100086.54;1788586;80;21031;-56
2023/05/01 02:40:45;;;;;;;5.30;2.50;;;;;;;8.73;65.41;100088.89;1788084;79;21806;-56
2023/05/01 02:43:16;;;;;;;5.05;2.60;;;;;;;8.76;65.48;100102.67;1788239;79;21672;-56
2023/05/01 02:45:46;;;;;;;6.15;2.50;;;;;;;8.76;65.49;100111.72;1788191;80;21500;-56
2023/05/01 02:48:19;;;;;;;7.42;2.83;;;;;;;8.76;65.52;100112.23;1788315;80;21063;-56
2023/05/01 02:50:48;;;;;;;7.62;2.60;;;;;;;8.74;65.50;100111.58;1788453;80;21423;-54
2023/05/01 02:53:17;;;;;;;4.45;2.45;;;;;;;8.71;65.57;100118.80;1782595;80;21043;-57
2023/05/01 02:55:52;;;;;;;4.37;2.42;;;;;;;8.69;65.64;100123.61;1774716;81;21004;-55
2023/05/01 02:58:20;;;;;;;5.12;2.42;;;;;;;8.66;65.75;100126.20;1774345;81;21004;-57
2023/05/01 03:00:49;;;;;;;8.50;2.72;;;;;;;8.65;65.94;100127.77;1774324;80;21012;-55
2023/05/01 03:03:18;;;;;;;6.33;2.60;;;;;;;8.63;66.08;100136.14;1774786;80;21514;-57
2023/05/01 03:05:47;;;;;;;4.22;2.58;;;;;;;8.63;66.17;100138.03;1774590;80;21032;-56
2023/05/01 03:08:16;;;;;;;7.00;2.85;;;;;;;8.63;66.28;100140.24;1774452;81;21460;-56
2023/05/01 03:10:45;;;;;;;6.15;2.52;;;;;;;8.62;66.40;100139.06;1774477;81;21509;-57
2023/05/01 03:13:14;;;;;;;5.55;2.40;;;;;;;8.61;66.56;100144.20;1774808;81;21490;-56
2023/05/01 03:15:43;;;;;;;4.33;2.37;;;;;;;8.60;66.72;100143.36;1774505;81;21024;-56
2023/05/01 03:18:12;;;;;;;6.12;2.75;;;;;;;8.58;66.86;100154.47;1763716;81;21056;-56
2023/05/01 03:20:43;;;;;;;5.87;2.30;;;;;;;8.57;66.98;100157.39;1774476;80;21079;-56
2023/05/01 03:23:13;;;;;;;5.70;2.60;;;;;;;8.56;67.05;100152.45;1763265;81;21510;-56
2023/05/01 03:25:42;;;;;;;4.17;2.22;;;;;;;8.59;67.12;100163.51;1774631;79;21377;-57
2023/05/01 03:28:11;;;;;;;5.75;2.80;;;;;;;8.60;67.16;100158.38;1774531;81;20981;-56
2023/05/01 03:30:41;;;;;;;9.33;2.72;;;;;;;8.62;67.22;100172.69;1774795;81;21004;-57
2023/05/01 03:33:10;;;;;;;5.45;2.10;;;;;;;8.62;67.21;100167.74;1774456;80;21040;-56
2023/05/01 03:35:38;;;;;;;5.70;2.15;;;;;;;8.63;67.20;100163.45;1774433;81;21079;-57
2023/05/01 03:38:08;;;;;;;4.72;2.55;;;;;;;8.63;67.11;100168.92;1774493;81;21425;-56
2023/05/01 03:40:56;;;;;;;5.23;2.03;;;;;;;8.63;67.04;100170.28;1774908;80;21420;-56
2023/05/01 03:43:33;;;;;;;5.20;2.20;;;;;;;8.61;67.07;100181.07;1774559;80;21814;-56
2023/05/01 03:46:04;;;;;;;5.22;2.17;;;;;;;8.61;67.05;100183.80;1774999;80;21008;-55
2023/05/01 03:48:32;;;;;;;4.30;2.30;;;;;;;8.59;67.08;100183.99;1774993;80;21048;-56
2023/05/01 03:51:04;;;;;;;7.35;2.27;;;;;;;8.62;67.03;100186.86;1775033;81;21036;-56
2023/05/01 03:53:35;;;;;;;4.30;2.00;;;;;;;8.65;66.94;100190.58;1780243;80;21036;-56
2023/05/01 03:56:06;;;;;;;6.55;2.40;;;;;;;8.68;66.78;100194.30;1788341;79;21011;-56
2023/05/01 03:58:35;;;;;;;4.65;2.08;;;;;;;8.70;66.63;100194.95;1788712;79;21023;-55
2023/05/01 04:01:04;;;;;;;5.05;2.02;;;;;;;8.72;66.43;100195.08;1788266;79;21462;-55
2023/05/01 04:03:34;;;;;;;4.37;2.40;;;;;;;8.74;66.25;100198.47;1788480;80;21019;-56
2023/05/01 04:06:03;;;;;;;10.43;2.33;;;;;;;8.78;66.10;100201.67;1788491;79;21447;-56
2023/05/01 04:08:32;;;;;;;5.62;2.27;;;;;;;8.80;65.85;100196.86;1788205;80;21015;-57
2023/05/01 04:11:01;;;;;;;7.80;1.92;;;;;;;8.84;65.75;100200.91;1788412;80;21439;-55
2023/05/01 04:13:32;;;;;;;4.85;2.33;;;;;;;8.86;65.37;100206.50;1788558;80;21048;-56
2023/05/01 04:16:01;;;;;;;4.53;1.80;;;;;;;8.87;65.41;100212.30;1788258;79;21184;-56
2023/05/01 04:18:31;;;;;;;3.42;1.70;;;;;;;8.90;65.25;100208.34;1788347;80;21051;-57
2023/05/01 04:21:02;;;;;;;7.60;2.50;;;;;;;8.93;64.95;100210.68;1788536;79;21047;-55
2023/05/01 04:23:32;;;;;;;10.28;2.75;;;;;;;8.98;64.57;100216.94;1788317;80;21035;-56
2023/05/01 04:26:02;;;;;;;4.42;2.10;;;;;;;9.00;64.31;100214.86;1788483;80;21050;-56
2023/05/01 04:28:32;;;;;;;11.30;2.08;;;;;;;9.02;64.21;100219.61;1788162;79;21392;-56
2023/05/01 04:31:01;;;;;;;5.22;1.80;;;;;;;9.06;63.77;100221.77;1770957;80;21008;-57
2023/05/01 04:33:30;;;;;;;3.17;1.98;;;;;;;9.11;63.44;100234.38;1788813;79;21392;-56
2023/05/01 04:35:59;;;;;;;4.33;1.75;;;;;;;9.14;63.24;100225.78;1788470;79;21035;-58
2023/05/01 04:38:29;;;;;;;4.03;2.12;;;;;;;9.20;62.70;100232.37;1770667;80;21513;-56
2023/05/01 04:40:58;;;;;;;5.00;2.25;;;;;;;9.25;62.25;100231.27;1788200;80;21439;-56
2023/05/01 04:43:27;;;;;;;4.10;1.40;;;;;;;9.32;61.90;100232.19;1788504;80;21147;-55
2023/05/01 04:45:56;;;;;;;5.03;2.60;;;;;;;9.41;61.10;100237.02;1788417;80;21043;-56
2023/05/01 04:48:25;;;;;;;3.92;1.90;;;;;;;9.48;60.62;100232.45;1788381;79;21087;-56
2023/05/01 04:50:55;;;;;;;6.12;1.70;;;;;;;9.54;59.91;100233.05;1788251;80;21480;-56
2023/05/01 04:53:24;;;;;;;4.65;1.85;;;;;;;9.59;59.47;100235.20;1788142;80;21075;-57
2023/05/01 04:55:53;;;;;;;3.72;1.60;;;;;;;9.62;58.96;100238.39;1788351;80;21063;-56
2023/05/01 04:58:23;;;;;;;4.05;2.00;;;;;;;9.67;57.72;100247.37;1788101;80;21521;-57
2023/05/01 05:00:53;;;;;;;3.05;1.70;;;;;;;9.73;57.59;100253.43;1788430;80;21012;-58
2023/05/01 05:03:24;;;;;;;6.37;2.10;;;;;;;9.80;57.24;100247.53;1788205;80;21448;-56
2023/05/01 05:05:53;;;;;;;3.62;1.50;;;;;;;9.87;56.84;100250.33;1788121;80;21008;-57
2023/05/01 05:08:23;;;;;;;6.78;1.70;;;;;;;9.92;55.58;100261.53;1770690;80;21448;-56
2023/05/01 05:11:00;;;;;;;2.72;1.47;;;;;;;9.97;55.14;100254.94;1787482;79;21020;-57
2023/05/01 05:13:33;;;;;;;3.87;1.60;;;;;;;10.02;55.05;100262.88;1787028;80;21051;-55
2023/05/01 05:16:05;;;;;;;4.12;1.60;;;;;;;10.08;54.56;100266.20;1788416;80;21023;-57
2023/05/01 05:18:34;;;;;;;3.17;1.70;;;;;;;10.14;54.28;100261.82;1788409;80;21004;-56
2023/05/01 05:21:07;;;;;;;3.65;1.22;;;;;;;10.20;53.98;100265.16;1788339;80;20972;-58
2023/05/01 05:23:36;;;;;;;3.37;1.50;;;;;;;10.29;53.53;100261.23;1788473;79;21082;-56
2023/05/01 05:26:06;;;;;;;2.92;1.40;;;;;;;10.37;53.13;100273.41;1788567;80;21042;-57
2023/05/01 05:28:35;;;;;;;5.53;1.62;;;;;;;10.42;52.72;100268.73;1788224;79;21031;-57
2023/05/01 05:31:06;;;;;;;3.20;1.22;;;;;;;10.42;52.66;100268.21;1788561;79;21043;-56
2023/05/01 05:33:35;;;;;;;7.87;1.45;;;;;;;10.45;52.21;100282.02;1788541;80;21070;-56
2023/05/01 05:36:05;;;;;;;3.70;1.22;;;;;;;10.46;52.20;100279.61;1788548;80;21063;-57
2023/05/01 05:38:37;;;;;;;3.40;1.52;;;;;;;10.47;51.26;100286.26;1788189;80;21454;-59
2023/05/01 05:41:07;;;;;;;5.03;1.60;;;;;;;10.47;50.78;100286.26;1788210;80;21031;-55
2023/05/01 05:43:36;;;;;;;2.22;1.35;;;;;;;10.50;50.63;100293.75;1788229;79;21521;-57
2023/05/01 05:46:05;;;;;;;1.85;1.20;;;;;;;10.50;50.23;100290.49;1788206;80;21443;-55
2023/05/01 05:48:34;;;;;;;5.83;1.65;;;;;;;10.50;50.02;100285.02;1788209;80;21011;-56
2023/05/01 05:51:04;;;;;;;2.52;1.30;;;;;;;10.54;50.07;100295.05;1788229;79;20983;-56
2023/05/01 05:53:34;;;;;;;3.70;1.20;;;;;;;10.56;49.47;100297.06;1786159;80;21444;-57
2023/05/01 05:56:04;;;;;;;5.03;1.50;;;;;;;10.57;48.95;100305.61;1774556;79;21051;-57
2023/05/01 05:58:33;;;;;;;4.87;1.40;;;;;;;10.61;48.44;100313.75;1774778;81;21481;-58
2023/05/01 06:01:02;;;;;;;4.53;1.10;;;;;;;10.63;47.84;100311.66;1774724;80;21044;-57
2023/05/01 06:03:32;;;;;;;11.73;1.50;;;;;;;10.66;46.71;100327.70;1774812;81;21000;-56
2023/05/01 06:06:02;;;;;;;4.50;1.17;;;;;;;10.67;46.58;100320.64;1774627;81;21612;-57
2023/05/01 06:08:34;;;;;;;2.30;1.12;;;;;;;10.68;46.13;100324.23;1774870;81;21028;-57
2023/05/01 06:11:03;;;;;;;1.82;1.00;;;;;;;10.70;45.79;100323.50;1763683;81;20993;-56
2023/05/01 06:13:36;;;;;;;2.02;1.10;;;;;;;10.72;45.54;100325.52;1774733;80;21020;-57
2023/05/01 06:16:06;;;;;;;4.65;1.12;;;;;;;10.73;45.21;100332.17;1774500;81;21052;-56
2023/05/01 06:18:35;;;;;;;3.45;1.55;;;;;;;10.79;45.35;100340.11;1774369;81;21443;-57
2023/05/01 06:21:05;;;;;;;4.67;1.32;;;;;;;10.86;45.25;100338.79;1774811;81;20996;-57
2023/05/01 06:23:34;;;;;;;4.50;1.00;;;;;;;10.93;43.70;100343.78;1763880;81;21052;-56
2023/05/01 06:26:07;;;;;;;5.55;1.10;;;;;;;11.09;43.48;100340.75;1764240;80;21454;-57
2023/05/01 06:28:36;;;;;;;2.85;1.20;;;;;;;11.41;42.99;100346.92;1763577;81;21020;-57
2023/05/01 06:31:05;;;;;;;2.95;1.00;;;;;;;11.86;42.21;100364.34;1774482;79;21028;-56
2023/05/01 06:33:35;;;;;;;5.28;0.98;;;;;;;12.48;41.09;100353.05;1774676;81;21079;-56
2023/05/01 06:36:06;;;;;;;1.47;1.10;;;;;;;13.07;40.10;100358.20;1773925;80;21043;-56
2023/05/01 06:38:36;;;;;;;4.22;0.88;;;;;;;13.69;37.60;100360.89;1774770;81;21044;-56
2023/05/01 06:41:05;;;;;;;3.05;0.82;;;;;;;14.10;36.99;100361.83;1774779;81;21040;-57
2023/05/01 06:43:33;;;;;;;2.17;0.95;;;;;;;14.39;35.57;100369.50;1774685;81;21043;-56
2023/05/01 06:46:02;;;;;;;7.78;1.02;;;;;;;14.71;35.46;100370.33;1774500;81;21063;-58
2023/05/01 06:48:31;;;;;;;5.35;1.00;;;;;;;15.10;34.40;100367.76;1774774;81;21056;-56
2023/05/01 06:51:01;;;;;;;2.25;0.93;;;;;;;15.47;32.99;100366.39;1774495;81;21040;-56
2023/05/01 06:53:30;;;;;;;3.70;1.00;;;;;;;15.77;31.68;100365.97;1774615;80;21024;-56
2023/05/01 06:55:59;;;;;;;2.15;1.00;;;;;;;16.02;31.43;100372.75;1788032;79;21419;-57
2023/05/01 06:58:27;;;;;;;2.08;0.90;;;;;;;16.30;31.40;100367.16;1787991;79;20976;-57
2023/05/01 07:00:56;;;;;;;3.00;1.10;;;;;;;16.51;31.62;100369.91;1787997;79;21487;-56
2023/05/01 07:03:29;;;;;;;4.55;1.30;;;;;;;16.66;30.85;100372.56;1788194;79;20993;-58
2023/05/01 07:05:56;;;;;;;1.35;0.90;;;;;;;16.77;30.08;100380.03;1787973;79;21501;-56
2023/05/01 07:08:26;;;;;;;5.50;1.32;;;;;;;16.92;30.69;100378.21;1788304;79;20987;-58
2023/05/01 07:10:55;;;;;;;6.30;1.35;;;;;;;17.13;30.26;100379.54;1788012;80;21086;-57
2023/05/01 07:13:25;;;;;;;6.35;1.37;;;;;;;17.31;29.29;100373.02;1788050;80;21510;-57
2023/05/01 07:15:54;;;;;;;4.92;1.27;;;;;;;17.55;28.17;100383.52;1768853;80;21023;-56
2023/05/01 07:18:24;;;;;;;4.87;1.30;;;;;;;17.77;27.65;100381.00;1788359;79;21019;-58
2023/05/01 07:20:53;;;;;;;1.70;1.20;;;;;;;17.96;27.92;100383.34;1788485;79;21019;-57
2023/05/01 07:23:22;;;;;;;4.75;1.10;;;;;;;18.13;27.10;100372.30;1788781;80;21012;-57
2023/05/01 07:25:52;;;;;;;5.20;0.88;;;;;;;18.30;26.93;100385.70;1788271;80;21055;-57
2023/05/01 07:28:21;;;;;;;2.80;1.02;;;;;;;18.47;26.61;100403.76;1768702;80;21016;-57
2023/05/01 07:30:51;;;;;;;4.03;0.90;;;;;;;18.55;25.38;100391.41;1788396;79;21635;-57
2023/05/01 07:33:20;;;;;;;9.38;1.02;;;;;;;18.50;25.43;100403.26;1787982;79;21031;-56
2023/05/01 07:35:49;;;;;;;2.70;1.10;;;;;;;18.47;25.14;100413.47;1787941;80;21011;-56
2023/05/01 07:38:18;;;;;;;3.25;0.85;;;;;;;18.50;24.58;100419.06;1788128;80;21083;-57
2023/05/01 07:40:46;;;;;;;3.08;0.80;;;;;;;18.54;24.67;100403.60;1788024;80;21501;-59
2023/05/01 07:43:15;;;;;;;3.05;0.88;;;;;;;18.56;24.39;100416.68;1787942;79;21027;-58
2023/05/01 07:45:57;;;;;;;3.10;1.30;;;;;;;18.60;24.73;100413.70;1787915;80;20979;-58
2023/05/01 07:48:27;;;;;;;5.90;1.00;;;;;;;18.66;24.26;100420.52;1788099;79;21075;-59
2023/05/01 07:50:56;;;;;;;2.25;1.00;;;;;;;18.80;24.29;100405.77;1787902;80;21178;-58
2023/05/01 07:53:25;;;;;;;4.80;0.90;;;;;;;18.92;23.99;100417.66;1787890;80;21024;-57
2023/05/01 07:55:56;;;;;;;5.15;1.10;;;;;;;18.89;23.71;100418.16;1776366;80;21016;-56
2023/05/01 07:58:25;;;;;;;1.60;0.80;;;;;;;18.91;24.25;100426.24;1774569;80;22041;-57
2023/05/01 08:00:53;;;;;;;3.02;0.90;;;;;;;18.99;24.07;100423.05;1774331;81;21523;-57
2023/05/01 08:03:22;;;;;;;2.52;1.05;;;;;;;19.08;23.99;100426.23;1774425;80;21043;-58
2023/05/01 08:05:51;;;;;;;3.45;1.07;;;;;;;19.13;23.63;100423.54;1774449;81;21557;-55
2023/05/01 08:08:20;;;;;;;4.58;1.07;;;;;;;19.17;23.44;100429.73;1774474;80;21440;-57
2023/05/01 08:10:51;;;;;;;1.80;0.80;;;;;;;19.15;24.04;100427.75;1774486;81;21004;-58
2023/05/01 08:13:20;;;;;;;4.40;1.20;;;;;;;19.25;24.49;100427.91;1774499;81;21051;-57
2023/05/01 08:15:49;;;;;;;3.22;0.88;;;;;;;19.42;24.33;100424.27;1774646;81;20982;-59
2023/05/01 08:18:21;;;;;;;3.20;0.90;;;;;;;19.47;24.36;100434.91;1774763;81;21019;-57
2023/05/01 08:20:49;;;;;;;2.35;0.80;;;;;;;19.41;24.67;100422.03;1774588;81;21494;-58
2023/05/01 08:23:18;;;;;;;3.30;1.00;;;;;;;19.42;24.34;100432.05;1774635;81;21452;-58
2023/05/01 08:25:49;;;;;;;3.50;1.02;;;;;;;19.30;24.43;100457.16;1774407;80;21008;-60
2023/05/01 08:28:19;;;;;;;1.92;0.95;;;;;;;19.26;24.41;100449.03;1774441;81;21494;-60
2023/05/01 08:30:49;;;;;;;3.20;0.90;;;;;;;19.19;24.05;100442.81;1774434;81;21440;-58
2023/05/01 08:33:18;;;;;;;2.55;0.80;;;;;;;19.09;23.83;100439.88;1774626;81;21397;-56
2023/05/01 08:35:47;;;;;;;3.27;1.07;;;;;;;19.03;24.37;100438.11;1774725;81;21036;-58
2023/05/01 08:38:17;;;;;;;3.72;0.88;;;;;;;19.04;24.43;100445.34;1774572;79;21061;-56
2023/05/01 08:40:51;;;;;;;3.52;1.20;;;;;;;19.09;24.35;100456.54;1774687;79;21005;-57
2023/05/01 08:43:20;;;;;;;2.22;1.00;;;;;;;19.00;24.01;100452.50;1774489;80;21016;-56
2023/05/01 08:45:49;;;;;;;4.40;0.88;;;;;;;18.85;23.86;100454.98;1774478;80;21036;-57
2023/05/01 08:48:17;;;;;;;1.35;0.60;;;;;;;18.79;24.21;100449.88;1767446;81;20980;-58
2023/05/01 08:50:47;;;;;;;3.33;0.82;;;;;;;18.77;24.11;100455.39;1699166;84;21113;-56
2023/05/01 08:53:16;;;;;;;2.77;1.00;;;;;;;18.68;24.15;100456.34;1759583;80;21047;-55
2023/05/01 08:55:46;;;;;;;4.83;0.90;;;;;;;18.69;23.82;100447.77;1757648;81;21066;-58
2023/05/01 08:58:15;;;;;;;3.02;1.00;;;;;;;18.81;23.94;100452.41;1761020;81;21055;-58
2023/05/01 09:00:43;;;;;;;4.55;1.27;;;;;;;18.83;23.29;100465.49;1688584;84;21508;-59
2023/05/01 09:03:13;;;;;;;2.42;0.70;;;;;;;18.73;23.17;100472.25;1759332;80;21031;-59
2023/05/01 09:05:42;;;;;;;2.15;0.88;;;;;;;18.54;23.52;100462.72;1743953;82;21436;-59
2023/05/01 09:08:11;;;;;;;6.30;0.82;;;;;;;18.37;23.75;100469.61;1743710;82;21490;-58
2023/05/01 09:10:44;;;;;;;5.28;0.82;;;;;;;18.19;24.02;100470.31;1743792;82;22073;-58
2023/05/01 09:13:14;;;;;;;5.87;1.40;;;;;;;18.02;24.23;100468.31;1762289;81;21033;-58
2023/05/01 09:15:43;;;;;;;3.17;0.95;;;;;;;17.73;24.55;100466.56;1774130;81;21028;-58
2023/05/01 09:18:13;;;;;;;1.45;1.00;;;;;;;17.43;25.22;100465.26;1774235;81;21444;-58
2023/05/01 09:20:42;;;;;;;2.65;0.82;;;;;;;17.37;25.25;100482.84;1774556;81;21060;-56
2023/05/01 09:23:11;;;;;;;1.40;0.93;;;;;;;17.32;24.87;100483.56;1774426;81;21526;-58
2023/05/01 09:25:42;;;;;;;3.27;1.30;;;;;;;17.20;24.67;100487.41;1774570;81;21043;-57
2023/05/01 09:28:11;;;;;;;3.02;0.88;;;;;;;17.07;24.70;100473.25;1773985;79;21048;-59
2023/05/01 09:30:40;;;;;;;3.72;0.80;;;;;;;17.04;24.61;100487.56;1774121;81;21420;-58
2023/05/01 09:33:13;;;;;;;1.40;0.80;;;;;;;17.01;24.89;100488.88;1774559;81;20976;-58
2023/05/01 09:35:53;;;;;;;1.45;0.80;;;;;;;16.87;24.98;100497.61;1774299;81;21401;-56
2023/05/01 09:43:55;;;;;;;2.67;0.90;;;;;;;16.67;25.54;100489.61;1774668;81;21519;-59
2023/05/01 09:46:25;;;;;;;3.37;0.80;;;;;;;16.54;25.55;100486.47;1774400;81;21008;-59
2023/05/01 09:48:57;;;;;;;2.00;0.88;;;;;;;16.39;25.73;100483.27;1763418;81;21024;-57
2023/05/01 09:51:33;;;;;;;4.53;0.93;;;;;;;16.27;25.82;100486.52;1774486;80;21020;-56
2023/05/01 09:54:03;;;;;;;1.12;0.70;;;;;;;16.12;25.97;100486.36;1774161;81;21032;-57
2023/05/01 09:56:32;;;;;;;1.50;0.70;;;;;;;16.05;26.30;100492.52;1774166;80;21491;-59
2023/05/01 09:59:24;;;;;;;1.37;0.60;;;;;;;16.01;26.23;100498.20;1774345;81;21060;-56
2023/05/01 10:01:51;;;;;;;1.35;0.70;;;;;;;15.91;26.04;100489.60;1773402;79;21092;-57
2023/05/01 10:04:32;;;;;;;1.17;0.70;;;;;;;15.82;27.01;100497.89;1750036;81;21027;-58
2023/05/01 10:07:13;;;;;;;2.10;0.72;;;;;;;15.82;26.63;100506.17;1732937;82;21086;-57
2023/05/01 10:09:42;;;;;;;4.15;0.70;;;;;;;15.85;26.61;100496.89;1733274;82;21031;-58
2023/05/01 10:12:12;;;;;;;2.95;1.30;;;;;;;15.89;26.88;100497.28;1733284;81;21492;-58
2023/05/01 10:14:53;;;;;;;2.10;0.90;;;;;;;15.95;27.13;100494.13;1689082;83;21099;-57
2023/05/01 10:17:22;;;;;;;1.60;0.88;;;;;;;15.98;27.51;100494.52;1733141;82;21067;-57
2023/05/01 10:19:51;;;;;;;0.98;0.62;;;;;;;15.94;26.84;100496.05;1733011;81;21508;-57
2023/05/01 10:22:20;;;;;;;2.83;0.90;;;;;;;15.88;27.09;100498.89;1733067;81;21011;-58
2023/05/01 10:24:49;;;;;;;1.47;0.70;;;;;;;15.81;26.73;100497.58;1733076;82;21027;-56
2023/05/01 10:27:17;;;;;;;3.98;0.90;;;;;;;15.80;26.78;100500.88;1732927;83;21435;-55
2023/05/01 10:29:47;;;;;;;1.10;0.70;;;;;;;15.79;26.81;100489.52;1733186;83;21046;-57
2023/05/01 10:32:16;;;;;;;2.42;0.95;;;;;;;15.74;27.17;100498.19;1733206;81;21453;-58
2023/05/01 10:34:50;;;;;;;0.98;0.75;;;;;;;15.67;28.30;100496.04;1732721;81;21478;-58
2023/05/01 10:37:38;;;;;;;4.12;0.82;;;;;;;15.66;27.59;100502.64;1733133;83;21007;-58
2023/05/01 10:40:46;;;;;;;4.20;0.80;;;;;;;15.66;27.86;100500.72;1733955;83;21491;-56
2023/05/01 10:43:29;;;;;;;2.25;1.42;;;;;;;15.68;27.31;100500.48;1734569;81;21051;-57
2023/05/01 10:46:18;;;;;;;1.98;1.10;;;;;;;15.66;27.56;100497.11;1733412;83;21011;-56
2023/05/01 10:48:53;;;;;;;1.45;0.80;;;;;;;15.68;27.34;100501.34;1733141;82;21059;-57
2023/05/01 10:51:23;;;;;;;1.15;0.80;;;;;;;15.66;27.26;100508.16;1733006;81;21027;-55
2023/05/01 10:54:20;;;;;;;3.52;1.17;;;;;;;15.64;27.44;100507.55;1732930;82;21419;-57
2023/05/01 10:56:49;;;;;;;4.47;0.88;;;;;;;15.63;27.15;100498.41;1752539;80;21074;-57
2023/05/01 10:59:18;;;;;;;0.82;0.60;;;;;;;15.59;27.45;100504.05;1757038;82;21041;-57
2023/05/01 11:01:50;;;;;;;2.02;0.80;;;;;;;15.61;27.39;100508.84;1757297;80;21058;-57
2023/05/01 11:04:28;;;;;;;1.60;0.95;;;;;;;15.65;27.30;100510.62;1756978;82;21101;-57
2023/05/01 11:07:16;;;;;;;;;;;;;;;15.65;27.74;100506.47;1759612;80;21050;-57
2023/05/01 11:09:54;;;;;;;3.30;1.05;;;;;;;15.68;27.62;100520.67;1757115;80;20162;-56
2023/05/01 11:12:46;;;;;;;1.57;0.80;;;;;;;15.71;27.78;100513.84;1756911;80;21042;-56
2023/05/01 11:15:32;;;;;;;3.08;0.80;;;;;;;15.75;27.30;100524.21;1757101;82;21492;-58
2023/05/01 11:18:01;;;;;;;1.32;0.60;;;;;;;15.66;26.96;100512.30;1757077;82;21010;-57
2023/05/01 11:20:47;;;;;;;2.33;1.00;;;;;;;15.66;27.04;100512.30;1757072;80;20990;-57
2023/05/01 11:23:17;;;;;;;2.40;0.80;;;;;;;15.70;27.20;100513.53;1757148;82;21013;-57
2023/05/01 11:25:46;;;;;;;0.90;0.70;;;;;;;15.73;27.01;100507.55;1756982;80;21077;-58
2023/05/01 11:28:19;;;;;;;2.27;1.00;;;;;;;15.70;26.93;100513.00;1757392;80;21037;-58
2023/05/01 11:30:49;;;;;;;3.37;0.70;;;;;;;15.67;27.09;100513.99;1756880;82;21069;-58
2023/05/01 11:33:24;;;;;;;1.42;0.70;;;;;;;15.59;26.87;100509.58;1757139;80;21054;-56
2023/05/01 11:35:59;;;;;;;7.17;0.82;;;;;;;15.51;27.06;100509.84;1756965;81;21018;-58
2023/05/01 11:38:27;;;;;;;2.45;0.65;;;;;;;15.45;27.03;100507.45;1756847;80;21535;-58
2023/05/01 11:40:58;;;;;;;1.15;0.60;;;;;;;15.42;27.83;100517.57;1757113;81;21446;-56
2023/05/01 11:43:27;;;;;;;2.83;0.70;;;;;;;15.46;27.73;100506.91;1757119;80;21069;-56
2023/05/01 11:46:01;;;;;;;3.77;0.80;;;;;;;15.50;27.89;100506.23;1757024;80;21065;-58
2023/05/01 11:48:26;;;;;;;3.77;1.20;;;;;;;15.54;27.69;100511.61;1756787;82;21018;-57
2023/05/01 11:50:54;;;;;;;6.22;1.27;;;;;;;15.57;27.65;100510.84;1757281;82;21022;-56
2023/05/01 11:53:23;;;;;;;3.60;0.75;;;;;;;15.57;28.31;100495.66;1756987;80;21038;-58
2023/05/01 11:55:51;;;;;;;2.47;0.75;;;;;;;15.65;27.89;100520.28;1750212;81;21066;-57